createdAt,value
2023-04-11T00:01:00.670Z,1.25
2023-04-11T00:03:03.753Z,1.40
2023-04-11T00:05:07.560Z,1.70
2023-04-11T00:07:11.009Z,1.88
2023-04-11T00:09:13.884Z,2.40
2023-04-11T00:11:16.665Z,2.17
2023-04-11T00:13:20.017Z,2.42
2023-04-11T00:15:27.085Z,2.40
2023-04-11T00:17:31.749Z,2.75
2023-04-11T00:19:34.701Z,2.80
2023-04-11T00:21:40.277Z,2.30
2023-04-11T00:23:43.159Z,2.75
2023-04-11T00:25:45.880Z,2.10
2023-04-11T00:27:48.767Z,1.85
2023-04-11T00:29:53.171Z,1.98
2023-04-11T00:31:57.016Z,1.52
2023-04-11T00:33:59.756Z,1.98
2023-04-11T00:36:02.500Z,1.70
2023-04-11T00:38:05.694Z,1.65
2023-04-11T00:40:09.141Z,2.00
2023-04-11T00:42:11.958Z,2.10
2023-04-11T00:44:15.064Z,2.00
2023-04-11T00:46:18.822Z,1.70
2023-04-11T00:48:21.617Z,1.85
2023-04-11T00:50:25.404Z,1.52
2023-04-11T00:52:28.168Z,1.80
2023-04-11T00:54:31.509Z,2.00
2023-04-11T00:56:34.518Z,1.55
2023-04-11T00:58:38.687Z,1.88
2023-04-11T01:00:41.652Z,2.35
2023-04-11T01:02:45.527Z,2.40
2023-04-11T01:04:48.728Z,2.25
2023-04-11T01:06:54.612Z,2.15
2023-04-11T01:08:57.798Z,2.05
2023-04-11T01:11:02.424Z,2.38
2023-04-11T01:13:05.308Z,1.77
2023-04-11T01:15:08.296Z,2.15
2023-04-11T01:17:12.842Z,1.80
2023-04-11T01:19:21.888Z,1.40
2023-04-11T01:21:27.247Z,2.35
2023-04-11T01:23:30.099Z,3.05
2023-04-11T01:25:33.009Z,1.83
2023-04-11T01:27:37.102Z,1.88
2023-04-11T01:29:39.802Z,2.10
2023-04-11T01:31:42.436Z,2.50
2023-04-11T01:33:53.803Z,2.28
2023-04-11T01:35:56.575Z,2.05
2023-04-11T01:37:59.493Z,2.17
2023-04-11T01:40:02.566Z,2.47
2023-04-11T01:42:07.251Z,2.45
2023-04-11T01:44:09.929Z,2.40
2023-04-11T01:46:14.143Z,2.20
2023-04-11T01:48:17.183Z,2.05
2023-04-11T01:50:20.822Z,1.83
2023-04-11T01:52:23.525Z,2.08
2023-04-11T01:54:26.268Z,1.95
2023-04-11T01:56:28.977Z,1.92
2023-04-11T01:58:31.575Z,2.40
2023-04-11T02:00:37.153Z,1.85
2023-04-11T02:02:40.085Z,1.42
2023-04-11T02:04:42.960Z,2.17
2023-04-11T02:06:45.739Z,2.33
2023-04-11T02:08:48.361Z,1.70
2023-04-11T02:10:51.203Z,1.58
2023-04-11T02:12:53.906Z,1.75
2023-04-11T02:14:56.583Z,2.28
2023-04-11T02:16:59.223Z,1.63
2023-04-11T02:19:03.768Z,1.83
2023-04-11T02:21:06.595Z,2.65
2023-04-11T02:23:09.342Z,1.48
2023-04-11T02:25:12.027Z,1.65
2023-04-11T02:27:15.177Z,2.03
2023-04-11T02:29:17.734Z,1.67
2023-04-11T02:31:21.268Z,1.45
2023-04-11T02:33:24.404Z,1.48
2023-04-11T02:35:27.035Z,1.58
2023-04-11T02:37:29.660Z,1.38
2023-04-11T02:39:32.233Z,1.65
2023-04-11T02:41:34.861Z,1.50
2023-04-11T02:43:37.573Z,1.38
2023-04-11T02:45:40.231Z,1.95
2023-04-11T02:47:43.061Z,1.73
2023-04-11T02:49:45.845Z,1.25
2023-04-11T02:51:48.389Z,1.40
2023-04-11T02:53:52.366Z,0.98
2023-04-11T02:55:55.031Z,1.38
2023-04-11T02:57:57.768Z,1.10
2023-04-11T03:00:00.473Z,1.00
2023-04-11T03:02:03.216Z,0.70
2023-04-11T03:04:07.470Z,0.90
2023-04-11T03:06:10.585Z,0.80
2023-04-11T03:08:13.258Z,1.25
2023-04-11T03:10:16.016Z,1.73
2023-04-11T03:12:20.265Z,1.42
2023-04-11T03:14:22.904Z,1.15
2023-04-11T03:16:28.335Z,1.27
2023-04-11T03:18:30.996Z,0.85
2023-04-11T03:20:33.992Z,0.90
2023-04-11T03:22:36.595Z,0.90
2023-04-11T03:24:42.220Z,0.68
2023-04-11T03:26:44.857Z,1.10
2023-04-11T03:28:47.517Z,0.98
2023-04-11T03:30:50.717Z,0.90
2023-04-11T03:32:54.788Z,1.15
2023-04-11T03:35:00.856Z,1.23
2023-04-11T03:37:03.844Z,1.10
2023-04-11T03:39:06.545Z,0.57
2023-04-11T03:41:09.184Z,0.90
2023-04-11T03:43:11.941Z,1.20
2023-04-11T03:45:14.629Z,1.27
2023-04-11T03:47:17.217Z,0.70
2023-04-11T03:49:19.876Z,1.20
2023-04-11T03:51:22.530Z,0.60
2023-04-11T03:53:25.170Z,0.55
2023-04-11T03:55:27.858Z,0.65
2023-04-11T03:57:30.623Z,1.17
2023-04-11T03:59:33.237Z,0.85
2023-04-11T04:01:38.325Z,1.00
2023-04-11T04:03:41.509Z,0.68
2023-04-11T04:05:44.321Z,0.70
2023-04-11T04:07:46.983Z,0.90
2023-04-11T04:09:49.724Z,0.80
2023-04-11T04:11:52.481Z,0.70
2023-04-11T04:13:55.760Z,1.27
2023-04-11T04:16:01.231Z,1.15
2023-04-11T04:18:05.668Z,0.82
2023-04-11T04:20:11.106Z,1.17
2023-04-11T04:22:13.835Z,1.02
2023-04-11T04:24:16.625Z,0.93
2023-04-11T04:26:25.212Z,1.10
2023-04-11T04:28:29.367Z,0.60
2023-04-11T04:30:31.985Z,0.88
2023-04-11T04:32:34.853Z,1.02
2023-04-11T04:34:49.725Z,0.82
2023-04-11T04:36:56.651Z,0.43
2023-04-11T04:39:02.351Z,2.63
2023-04-11T04:41:06.269Z,1.10
2023-04-11T04:43:11.748Z,1.17
2023-04-11T04:45:14.443Z,0.75
2023-04-11T04:47:17.804Z,1.05
2023-04-11T04:49:20.652Z,0.90
2023-04-11T04:51:23.268Z,0.95
2023-04-11T04:53:26.214Z,0.70
2023-04-11T04:55:29.088Z,0.70
2023-04-11T04:57:32.355Z,0.73
2023-04-11T04:59:35.075Z,0.70
2023-04-11T05:01:40.255Z,0.65
2023-04-11T05:03:44.852Z,0.80
2023-04-11T05:05:47.624Z,0.70
2023-04-11T05:07:50.238Z,0.80
2023-04-11T05:09:52.909Z,1.08
2023-04-11T05:12:02.466Z,0.95
2023-04-11T05:14:05.290Z,0.38
2023-04-11T05:16:08.645Z,1.67
2023-04-11T05:18:11.403Z,0.55
2023-04-11T05:20:15.548Z,1.20
2023-04-11T05:22:18.138Z,0.40
2023-04-11T05:24:20.811Z,0.80
2023-04-11T05:26:23.410Z,0.57
2023-04-11T05:28:26.268Z,0.98
2023-04-11T05:30:28.998Z,0.70
2023-04-11T05:32:31.725Z,0.80
2023-04-11T05:34:34.672Z,0.45
2023-04-11T05:36:37.300Z,1.58
2023-04-11T05:38:43.706Z,0.82
2023-04-11T05:40:46.510Z,0.75
2023-04-11T05:42:49.178Z,0.63
2023-04-11T05:44:51.874Z,0.70
2023-04-11T05:46:54.564Z,0.47
2023-04-11T05:49:01.123Z,0.68
2023-04-11T05:51:04.118Z,0.68
2023-04-11T05:53:07.037Z,1.00
2023-04-11T05:55:10.108Z,0.50
2023-04-11T05:57:12.756Z,0.73
2023-04-11T05:59:17.484Z,0.80
2023-04-11T06:01:22.420Z,0.82
2023-04-11T06:03:25.249Z,0.90
2023-04-11T06:05:31.726Z,0.63
2023-04-11T06:07:36.162Z,0.50
2023-04-11T06:09:42.301Z,0.60
2023-04-11T06:11:45.378Z,1.02
2023-04-11T06:13:48.103Z,0.73
2023-04-11T06:15:51.025Z,0.75
2023-04-11T06:17:54.454Z,0.90
2023-04-11T06:19:57.193Z,1.45
2023-04-11T06:21:59.794Z,1.15
2023-04-11T06:24:10.117Z,0.98
2023-04-11T06:26:12.824Z,0.80
2023-04-11T06:28:15.988Z,0.70
2023-04-11T06:30:18.772Z,0.40
2023-04-11T06:32:22.344Z,0.65
2023-04-11T06:34:24.972Z,0.65
2023-04-11T06:36:27.971Z,0.90
2023-04-11T06:38:30.808Z,0.80
2023-04-11T06:40:33.398Z,1.02
2023-04-11T06:42:36.157Z,0.88
2023-04-11T06:44:38.922Z,0.60
2023-04-11T06:46:41.792Z,0.32
2023-04-11T06:48:47.263Z,1.02
2023-04-11T06:50:50.033Z,0.80
2023-04-11T06:52:52.784Z,0.47
2023-04-11T06:54:55.427Z,0.63
2023-04-11T06:56:58.026Z,0.47
2023-04-11T06:59:01.656Z,0.55
2023-04-11T07:01:04.684Z,0.50
2023-04-11T07:03:08.724Z,0.80
2023-04-11T07:05:12.234Z,0.40
2023-04-11T07:07:14.968Z,0.52
2023-04-11T07:09:17.619Z,0.50
2023-04-11T07:11:20.619Z,0.40
2023-04-11T07:13:23.256Z,0.43
2023-04-11T07:15:25.983Z,0.40
2023-04-11T07:17:28.691Z,0.38
2023-04-11T07:19:31.366Z,0.35
2023-04-11T07:21:34.231Z,0.47
2023-04-11T07:23:36.890Z,0.68
2023-04-11T07:25:39.613Z,0.40
2023-04-11T07:27:43.946Z,0.50
2023-04-11T07:29:46.772Z,0.50
2023-04-11T07:31:49.973Z,0.55
2023-04-11T07:33:52.579Z,0.77
2023-04-11T07:35:55.352Z,0.30
2023-04-11T07:37:58.503Z,0.40
2023-04-11T07:40:01.158Z,0.28
2023-04-11T07:42:05.986Z,0.57
2023-04-11T07:44:09.770Z,0.30
2023-04-11T07:46:15.353Z,0.30
2023-04-11T07:48:18.231Z,0.20
2023-04-11T07:50:21.095Z,0.40
2023-04-11T07:52:23.780Z,0.35
2023-04-11T07:54:28.734Z,0.28
2023-04-11T07:56:31.461Z,0.30
2023-04-11T07:58:34.114Z,0.30
2023-04-11T08:00:36.908Z,0.30
2023-04-11T08:02:39.787Z,0.35
2023-04-11T08:04:42.577Z,0.25
2023-04-11T08:06:45.299Z,0.30
2023-04-11T08:08:49.040Z,0.30
2023-04-11T08:10:52.363Z,0.50
2023-04-11T08:12:56.304Z,0.32
2023-04-11T08:14:59.101Z,0.30
2023-04-11T08:17:02.166Z,0.30
2023-04-11T08:19:05.009Z,0.40
2023-04-11T08:21:08.347Z,0.85
2023-04-11T08:23:11.583Z,0.30
2023-04-11T08:25:15.106Z,0.40
2023-04-11T08:27:17.836Z,0.20
2023-04-11T08:29:20.682Z,0.63
2023-04-11T08:31:23.389Z,0.30
2023-04-11T08:33:27.758Z,0.20
2023-04-11T08:35:30.593Z,0.30
2023-04-11T08:37:33.433Z,0.20
2023-04-11T08:39:36.304Z,0.20
2023-04-11T08:41:39.046Z,0.30
2023-04-11T08:43:41.880Z,0.45
2023-04-11T08:45:44.783Z,0.30
2023-04-11T08:47:47.644Z,0.30
2023-04-11T08:49:50.900Z,0.50
2023-04-11T08:51:54.628Z,0.90
2023-04-11T08:54:01.685Z,0.38
2023-04-11T08:56:04.451Z,0.25
2023-04-11T08:58:07.153Z,0.50
2023-04-11T09:00:19.283Z,0.20
2023-04-11T09:02:23.001Z,0.32
2023-04-11T09:04:43.348Z,0.50
2023-04-11T09:07:12.388Z,0.20
2023-04-11T09:09:30.069Z,0.20
2023-04-11T09:11:52.645Z,0.40
2023-04-11T09:14:11.670Z,0.60
2023-04-11T09:16:14.803Z,0.28
2023-04-11T09:18:44.672Z,0.50
2023-04-11T09:21:02.767Z,0.45
2023-04-11T09:23:05.582Z,0.40
2023-04-11T09:25:08.702Z,0.55
2023-04-11T09:27:14.149Z,0.35
2023-04-11T09:29:43.733Z,0.52
2023-04-11T09:31:46.737Z,0.22
2023-04-11T09:33:54.843Z,0.40
2023-04-11T09:35:58.084Z,0.50
2023-04-11T09:38:03.486Z,0.30
2023-04-11T09:40:06.962Z,0.50
2023-04-11T09:42:38.795Z,0.73
2023-04-11T09:44:41.553Z,0.35
2023-04-11T09:46:57.926Z,0.40
2023-04-11T09:49:03.645Z,0.25
2023-04-11T09:51:09.663Z,0.43
2023-04-11T09:53:12.776Z,0.50
2023-04-11T09:55:18.762Z,0.40
2023-04-11T09:57:25.606Z,0.50
2023-04-11T09:59:30.137Z,0.50
2023-04-11T10:01:33.434Z,0.75
2023-04-11T10:03:40.345Z,0.77
2023-04-11T10:05:43.573Z,0.52
2023-04-11T10:08:08.129Z,0.70
2023-04-11T10:10:16.017Z,0.52
2023-04-11T10:12:34.319Z,0.30
2023-04-11T10:14:37.028Z,0.75
2023-04-11T10:17:19.718Z,0.65
2023-04-11T10:19:25.167Z,0.85
2023-04-11T10:21:30.959Z,0.70
2023-04-11T10:24:14.801Z,0.60
2023-04-11T10:26:19.147Z,0.65
2023-04-11T10:28:36.163Z,0.60
2023-04-11T10:30:41.667Z,0.73
2023-04-11T10:33:09.889Z,0.52
2023-04-11T10:35:18.467Z,0.68
2023-04-11T10:37:30.103Z,1.00
2023-04-11T10:39:53.940Z,0.60
2023-04-11T10:42:35.004Z,0.60
2023-04-11T10:44:37.744Z,0.50
2023-04-11T10:46:49.658Z,0.50
2023-04-11T10:48:59.887Z,0.50
2023-04-11T10:51:23.466Z,0.80
2023-04-11T10:53:37.265Z,0.40
2023-04-11T10:55:51.247Z,0.90
2023-04-11T10:58:10.906Z,1.13
2023-04-11T11:00:16.054Z,0.68
2023-04-11T11:02:20.146Z,0.60
2023-04-11T11:04:32.935Z,0.68
2023-04-11T11:06:46.145Z,0.60
2023-04-11T11:08:50.272Z,0.80
2023-04-11T11:10:52.839Z,0.82
2023-04-11T11:12:56.244Z,0.77
2023-04-11T11:14:58.842Z,0.75
2023-04-11T11:17:03.272Z,0.40
2023-04-11T11:19:06.648Z,0.80
2023-04-11T11:21:14.166Z,0.70
2023-04-11T11:23:19.852Z,0.50
2023-04-11T11:25:22.601Z,0.70
2023-04-11T11:27:25.408Z,0.65
2023-04-11T11:29:35.853Z,1.00
2023-04-11T11:31:46.637Z,0.77
2023-04-11T11:33:49.347Z,0.75
2023-04-11T11:35:53.767Z,0.80
2023-04-11T11:37:56.603Z,0.60
2023-04-11T11:39:59.351Z,0.60
2023-04-11T11:42:02.349Z,0.85
2023-04-11T11:44:05.994Z,0.63
2023-04-11T11:46:15.306Z,0.65
2023-04-11T11:48:23.434Z,0.60
2023-04-11T11:50:31.292Z,0.85
2023-04-11T11:52:34.644Z,0.85
2023-04-11T11:54:45.133Z,0.88
2023-04-11T11:56:55.200Z,0.93
2023-04-11T11:58:58.469Z,0.50
2023-04-11T12:01:01.452Z,0.35
2023-04-11T12:03:05.617Z,0.60
2023-04-11T12:05:16.215Z,0.52
2023-04-11T12:07:23.047Z,0.90
2023-04-11T12:09:32.122Z,0.60
2023-04-11T12:11:42.626Z,0.82
2023-04-11T12:13:46.315Z,0.57
2023-04-11T12:15:55.159Z,0.43
2023-04-11T12:17:58.098Z,0.80
2023-04-11T12:20:01.998Z,0.68
2023-04-11T12:22:06.144Z,0.90
2023-04-11T12:24:10.139Z,1.08
2023-04-11T12:26:13.759Z,0.95
2023-04-11T12:28:16.620Z,1.15
2023-04-11T12:30:19.327Z,0.80
2023-04-11T12:32:23.572Z,0.98
2023-04-11T12:34:26.332Z,0.70
2023-04-11T12:36:29.859Z,0.68
2023-04-11T12:38:33.521Z,0.50
2023-04-11T12:40:36.421Z,0.68
2023-04-11T12:42:53.249Z,0.82
2023-04-11T12:44:58.286Z,0.50
2023-04-11T12:47:00.987Z,0.80
2023-04-11T12:49:03.714Z,0.70
2023-04-11T12:51:06.680Z,0.73
2023-04-11T12:53:09.319Z,0.55
2023-04-11T12:55:13.541Z,0.95
2023-04-11T12:57:16.399Z,0.80
2023-04-11T12:59:19.073Z,0.55
2023-04-11T13:01:23.762Z,0.93
2023-04-11T13:03:27.590Z,1.00
2023-04-11T13:05:31.039Z,0.70
2023-04-11T13:07:35.282Z,1.15
2023-04-11T13:09:38.485Z,0.88
2023-04-11T13:11:42.387Z,0.60
2023-04-11T13:13:45.356Z,0.60
2023-04-11T13:15:47.986Z,0.50
2023-04-11T13:17:51.905Z,0.77
2023-04-11T13:19:55.868Z,0.90
2023-04-11T13:21:58.696Z,0.70
2023-04-11T13:24:01.352Z,0.50
2023-04-11T13:26:04.075Z,0.80
2023-04-11T13:28:07.986Z,0.60
2023-04-11T13:30:12.039Z,0.60
2023-04-11T13:32:14.928Z,0.77
2023-04-11T13:34:18.606Z,0.65
2023-04-11T13:36:22.498Z,1.00
2023-04-11T13:38:26.171Z,0.70
2023-04-11T13:40:28.779Z,0.60
2023-04-11T13:42:31.571Z,0.98
2023-04-11T13:44:34.240Z,1.05
2023-04-11T13:46:37.373Z,0.60
2023-04-11T13:48:40.183Z,0.85
2023-04-11T13:50:42.820Z,0.57
2023-04-11T13:52:45.525Z,0.93
2023-04-11T13:54:48.156Z,0.70
2023-04-11T13:56:51.224Z,0.75
2023-04-11T13:58:53.768Z,0.68
2023-04-11T14:00:56.357Z,0.77
2023-04-11T14:05:27.154Z,1.10
2023-04-11T14:07:30.018Z,0.57
2023-04-11T14:09:32.719Z,1.00
2023-04-11T14:11:35.846Z,1.52
2023-04-11T14:13:38.474Z,0.95
2023-04-11T14:15:41.163Z,0.68
2023-04-11T14:17:44.336Z,1.20
2023-04-11T14:19:47.018Z,1.10
2023-04-11T14:21:50.836Z,1.25
2023-04-11T14:23:53.608Z,0.60
2023-04-11T14:25:56.941Z,0.80
2023-04-11T14:27:59.657Z,1.58
2023-04-11T14:30:02.231Z,0.73
2023-04-11T14:32:07.647Z,0.98
2023-04-11T14:34:10.335Z,1.00
2023-04-11T14:36:12.959Z,1.35
2023-04-11T14:38:16.121Z,0.82
2023-04-11T14:40:18.921Z,0.65
2023-04-11T14:42:21.672Z,0.63
2023-04-11T14:44:24.404Z,1.20
2023-04-11T14:46:27.746Z,1.02
2023-04-11T14:48:30.706Z,0.80
2023-04-11T14:50:33.308Z,0.70
2023-04-11T14:52:36.056Z,1.13
2023-04-11T14:54:38.700Z,0.80
2023-04-11T14:56:41.621Z,0.90
2023-04-11T14:58:44.326Z,0.75
2023-04-11T15:00:47.002Z,1.05
2023-04-11T15:02:54.670Z,0.77
2023-04-11T15:04:57.685Z,1.20
2023-04-11T15:07:00.360Z,0.75
2023-04-11T15:09:04.917Z,0.95
2023-04-11T15:11:08.437Z,0.73
2023-04-11T15:13:12.076Z,1.38
2023-04-11T15:15:15.223Z,1.52
2023-04-11T15:17:18.000Z,1.10
2023-04-11T15:19:20.803Z,1.08
2023-04-11T15:21:23.424Z,0.95
2023-04-11T15:23:26.764Z,0.70
2023-04-11T15:25:29.473Z,1.25
2023-04-11T15:27:32.117Z,1.35
2023-04-11T15:29:36.551Z,1.00
2023-04-11T15:31:39.280Z,1.48
2023-04-11T15:33:42.104Z,0.88
2023-04-11T15:35:46.085Z,0.70
2023-04-11T15:37:48.860Z,0.90
2023-04-11T15:39:51.721Z,0.98
2023-04-11T15:41:54.308Z,1.70
2023-04-11T15:43:57.136Z,1.35
2023-04-11T15:46:03.528Z,1.50
2023-04-11T15:48:06.985Z,2.15
2023-04-11T15:50:10.162Z,1.73
2023-04-11T15:52:12.837Z,1.17
2023-04-11T15:54:15.612Z,1.50
2023-04-11T15:56:19.899Z,1.05
2023-04-11T15:58:22.752Z,1.00
2023-04-11T16:00:27.419Z,1.33
2023-04-11T16:02:30.178Z,0.82
2023-04-11T16:04:35.598Z,0.82
2023-04-11T16:06:38.399Z,0.70
2023-04-11T16:08:41.213Z,0.88
2023-04-11T16:10:44.115Z,0.80
2023-04-11T16:12:46.888Z,0.57
2023-04-11T16:14:49.526Z,0.50
2023-04-11T16:16:53.107Z,0.35
2023-04-11T16:18:56.047Z,0.82
2023-04-11T16:20:58.708Z,0.50
2023-04-11T16:23:01.474Z,1.05
2023-04-11T16:25:07.597Z,0.68
2023-04-11T16:27:10.578Z,1.35
2023-04-11T16:29:13.281Z,0.40
2023-04-11T16:31:22.032Z,0.73
2023-04-11T16:33:24.768Z,0.50
2023-04-11T16:35:27.473Z,0.68
2023-04-11T16:37:30.419Z,0.55
2023-04-11T16:39:33.400Z,0.60
2023-04-11T16:41:39.050Z,0.43
2023-04-11T16:43:41.725Z,0.68
2023-04-11T16:45:44.848Z,1.00
2023-04-11T16:47:47.551Z,0.60
2023-04-11T16:49:50.477Z,0.77
2023-04-11T16:51:53.219Z,0.50
2023-04-11T16:53:56.417Z,0.52
2023-04-11T16:55:59.222Z,0.63
2023-04-11T16:58:02.343Z,0.63
2023-04-11T17:00:11.021Z,0.40
2023-04-11T17:02:13.877Z,0.47
2023-04-11T17:04:16.860Z,0.50
2023-04-11T17:06:19.855Z,0.95
2023-04-11T17:08:22.503Z,1.05
2023-04-11T17:10:25.175Z,0.65
2023-04-11T17:12:28.398Z,0.65
2023-04-11T17:14:35.117Z,0.50
2023-04-11T17:16:37.897Z,0.70
2023-04-11T17:18:41.201Z,0.57
2023-04-11T17:20:46.534Z,0.73
2023-04-11T17:22:50.898Z,0.30
2023-04-11T17:24:53.950Z,0.60
2023-04-11T17:26:57.228Z,0.90
2023-04-11T17:29:00.178Z,0.68
2023-04-11T17:31:12.017Z,1.55
2023-04-11T17:35:23.055Z,0.70
2023-04-11T17:37:25.851Z,0.93
2023-04-11T17:39:28.567Z,0.70
2023-04-11T17:41:31.232Z,0.80
2023-04-11T17:43:33.993Z,0.85
2023-04-11T17:45:37.373Z,1.60
2023-04-11T17:47:43.275Z,0.68
2023-04-11T17:49:46.384Z,0.50
2023-04-11T17:51:58.147Z,0.50
2023-04-11T17:54:02.294Z,0.55
2023-04-11T17:56:06.246Z,0.70
2023-04-11T17:58:09.113Z,0.80
2023-04-11T18:00:18.183Z,0.85
2023-04-11T18:02:21.104Z,0.43
2023-04-11T18:04:24.065Z,0.73
2023-04-11T18:06:30.039Z,0.85
2023-04-11T18:08:49.001Z,0.60
2023-04-11T18:10:53.082Z,0.45
2023-04-11T18:12:57.691Z,0.60
2023-04-11T18:15:00.504Z,0.85
2023-04-11T18:17:03.573Z,0.88
2023-04-11T18:19:06.477Z,0.63
2023-04-11T18:21:09.160Z,0.75
2023-04-11T18:23:12.231Z,0.63
2023-04-11T18:25:15.445Z,0.82
2023-04-11T18:27:18.076Z,1.08
2023-04-11T18:29:20.821Z,0.75
2023-04-11T18:31:23.609Z,1.00
2023-04-11T18:33:26.367Z,1.40
2023-04-11T18:35:29.154Z,1.55
2023-04-11T18:37:32.493Z,1.38
2023-04-11T18:39:35.298Z,0.93
2023-04-11T18:41:38.237Z,0.80
2023-04-11T18:43:41.121Z,0.75
2023-04-11T18:45:45.077Z,0.90
2023-04-11T18:47:48.285Z,0.80
2023-04-11T18:49:51.340Z,0.82
2023-04-11T18:51:54.056Z,0.98
2023-04-11T18:53:56.870Z,1.38
2023-04-11T18:56:03.277Z,1.08
2023-04-11T18:58:08.965Z,1.08
2023-04-11T19:00:18.648Z,0.70
2023-04-11T19:02:22.029Z,0.80
2023-04-11T19:04:25.547Z,1.15
2023-04-11T19:06:28.582Z,1.20
2023-04-11T19:08:31.305Z,1.15
2023-04-11T19:10:33.994Z,1.25
2023-04-11T19:12:37.454Z,1.30
2023-04-11T19:14:40.162Z,1.90
2023-04-11T19:16:44.382Z,1.08
2023-04-11T19:18:47.078Z,1.10
2023-04-11T19:20:49.847Z,1.15
2023-04-11T19:22:52.895Z,1.20
2023-04-11T19:24:55.559Z,1.38
2023-04-11T19:26:58.335Z,1.30
2023-04-11T19:29:01.280Z,1.25
2023-04-11T19:31:03.941Z,1.30
2023-04-11T19:33:06.724Z,1.98
2023-04-11T19:35:10.686Z,1.60
2023-04-11T19:37:14.191Z,1.63
2023-04-11T19:39:16.822Z,1.67
2023-04-11T19:41:20.178Z,1.70
2023-04-11T19:43:23.045Z,1.25
2023-04-11T19:45:25.835Z,1.30
2023-04-11T19:47:28.856Z,1.48
2023-04-11T19:49:31.549Z,1.73
2023-04-11T19:51:34.422Z,1.50
2023-04-11T19:53:41.057Z,1.73
2023-04-11T19:55:45.653Z,2.53
2023-04-11T19:57:48.399Z,1.52
2023-04-11T19:59:51.215Z,1.27
2023-04-11T20:01:54.472Z,1.83
2023-04-11T20:03:57.463Z,1.17
2023-04-11T20:06:00.555Z,1.15
2023-04-11T20:08:03.229Z,1.20
2023-04-11T20:10:08.043Z,1.60
2023-04-11T20:12:10.781Z,1.58
2023-04-11T20:14:13.483Z,1.30
2023-04-11T20:16:17.297Z,1.58
2023-04-11T20:18:19.959Z,2.03
2023-04-11T20:20:25.760Z,1.77
2023-04-11T20:22:28.608Z,1.25
2023-04-11T20:24:31.262Z,1.25
2023-04-11T20:26:33.914Z,1.30
2023-04-11T20:28:36.920Z,1.90
2023-04-11T20:30:39.777Z,1.58
2023-04-11T20:32:43.887Z,1.23
2023-04-11T20:34:46.641Z,1.70
2023-04-11T20:36:49.299Z,1.70
2023-04-11T20:38:52.020Z,1.80
2023-04-11T20:40:54.669Z,2.25
2023-04-11T20:43:00.314Z,1.58
2023-04-11T20:45:13.702Z,1.15
2023-04-11T20:47:16.574Z,2.00
2023-04-11T20:49:19.825Z,1.35
2023-04-11T20:51:22.643Z,1.40
2023-04-11T20:53:26.862Z,1.40
2023-04-11T20:55:30.778Z,1.20
2023-04-11T20:57:35.960Z,1.52
2023-04-11T20:59:39.405Z,1.45
2023-04-11T21:01:42.525Z,1.77
2023-04-11T21:03:47.099Z,1.55
2023-04-11T21:05:50.285Z,2.05
2023-04-11T21:07:55.795Z,1.80
2023-04-11T21:09:58.676Z,1.65
2023-04-11T21:12:02.527Z,1.38
2023-04-11T21:14:06.909Z,1.65
2023-04-11T21:16:10.123Z,1.60
2023-04-11T21:18:12.958Z,2.92
2023-04-11T21:20:18.758Z,1.85
2023-04-11T21:22:21.932Z,1.98
2023-04-11T21:24:24.683Z,2.08
2023-04-11T21:26:27.386Z,1.77
2023-04-11T21:28:30.931Z,1.90
2023-04-11T21:30:33.618Z,2.30
2023-04-11T21:32:36.588Z,2.17
2023-04-11T21:34:39.226Z,1.85
2023-04-11T21:36:41.884Z,1.88
2023-04-11T21:38:44.604Z,2.33
2023-04-11T21:40:47.343Z,3.03
2023-04-11T21:42:50.061Z,2.25
2023-04-11T21:44:52.681Z,2.20
2023-04-11T21:46:55.540Z,2.50
2023-04-11T21:48:58.620Z,2.20
2023-04-11T21:51:03.614Z,1.70
2023-04-11T21:53:06.502Z,2.10
2023-04-11T21:55:10.007Z,2.40
2023-04-11T21:57:12.893Z,2.10
2023-04-11T21:59:15.600Z,2.55
2023-04-11T22:01:20.908Z,2.13
2023-04-11T22:03:24.451Z,2.20
2023-04-11T22:05:27.698Z,2.42
2023-04-11T22:07:39.134Z,2.83
2023-04-11T22:09:47.783Z,2.58
2023-04-11T22:11:51.097Z,2.42
2023-04-11T22:13:53.974Z,1.95
2023-04-11T22:16:05.250Z,2.88
2023-04-11T22:18:11.623Z,2.50
2023-04-11T22:20:16.674Z,2.22
2023-04-11T22:22:19.390Z,2.58
2023-04-11T22:24:31.150Z,2.53
2023-04-11T22:26:36.736Z,3.17
2023-04-11T22:28:39.469Z,2.80
2023-04-11T22:30:44.296Z,3.03
2023-04-11T22:32:47.123Z,2.50
2023-04-11T22:34:50.324Z,2.28
2023-04-11T22:36:53.147Z,2.67
2023-04-11T22:38:55.830Z,2.78
2023-04-11T22:40:58.449Z,2.33
2023-04-11T22:43:02.906Z,2.78
2023-04-11T22:45:06.298Z,1.92
2023-04-11T22:47:12.233Z,3.00
2023-04-11T22:49:15.925Z,2.45
2023-04-11T22:51:18.633Z,2.60
2023-04-11T22:53:22.195Z,2.63
2023-04-11T22:55:25.154Z,2.90
2023-04-11T22:57:27.801Z,2.78
2023-04-11T22:59:30.837Z,2.60
2023-04-11T23:01:33.806Z,2.83
2023-04-11T23:03:36.767Z,3.22
2023-04-11T23:05:42.863Z,3.17
2023-04-11T23:07:46.571Z,2.47
2023-04-11T23:09:49.206Z,3.10
2023-04-11T23:11:52.520Z,2.42
2023-04-11T23:13:55.210Z,2.80
2023-04-11T23:16:00.861Z,2.90
2023-04-11T23:18:03.698Z,2.65
2023-04-11T23:20:14.404Z,2.65
2023-04-11T23:22:17.381Z,2.90
2023-04-11T23:24:20.056Z,2.53
2023-04-11T23:26:25.743Z,3.17
2023-04-11T23:28:28.518Z,2.20
2023-04-11T23:30:31.322Z,2.80
2023-04-11T23:32:34.703Z,2.40
2023-04-11T23:34:37.438Z,3.08
2023-04-11T23:36:40.088Z,2.08
2023-04-11T23:38:43.008Z,2.67
2023-04-11T23:40:46.124Z,3.13
2023-04-11T23:42:48.961Z,2.63
2023-04-11T23:44:52.007Z,2.97
2023-04-11T23:46:54.650Z,3.40
2023-04-11T23:48:57.508Z,3.00
2023-04-11T23:51:00.141Z,3.20
2023-04-11T23:53:02.783Z,3.10
2023-04-11T23:55:05.961Z,2.92
2023-04-11T23:57:08.651Z,2.67
2023-04-11T23:59:11.526Z,3.67
